Terminal Aerodrome Forecast
Issued by NWS Wilmington, OH

Current Version | Previous Version | Text Only | Print | Product List | Glossary Off
Versions: 1 2 3 4 5 6 7 8 9 10 11 12 13 14 15 16 17 18 19 20 21 22 23 24

000
FTUS41 KILN 240858 AAA
TAFILN
TAF AMD
KILN 240858Z 2409/2506 16003KT 6SM BR SCT120 OVC250
      TEMPO 2409/2412 3SM BR
     FM241400 23007KT P6SM SCT030 BKN200
     FM241800 26008KT P6SM SCT040
     FM250000 VRB03KT P6SM SCT040=

USA.gov is the U.S. government's official web portal to all federal, state and local government web resources and services.